sensor_id;sensor_type;location;lat;lon;timestamp;P1;durP1;ratioP1;P2;durP2;ratioP2
68944;SDS011;55984;48.790;8.990;2022-10-17T00:02:06;9.60;;;6.77;;
68944;SDS011;55984;48.790;8.990;2022-10-17T00:07:32;12.20;;;7.80;;
68944;SDS011;55984;48.790;8.990;2022-10-17T00:09:58;12.63;;;7.60;;
68944;SDS011;55984;48.790;8.990;2022-10-17T00:12:24;14.20;;;7.00;;
68944;SDS011;55984;48.790;8.990;2022-10-17T00:14:50;21.77;;;6.57;;
68944;SDS011;55984;48.790;8.990;2022-10-17T00:17:16;15.33;;;7.77;;
68944;SDS011;55984;48.790;8.990;2022-10-17T00:19:43;19.30;;;8.37;;
68944;SDS011;55984;48.790;8.990;2022-10-17T00:22:09;17.10;;;9.10;;
68944;SDS011;55984;48.790;8.990;2022-10-17T00:24:38;16.47;;;9.47;;
68944;SDS011;55984;48.790;8.990;2022-10-17T00:27:04;16.50;;;8.50;;
68944;SDS011;55984;48.790;8.990;2022-10-17T00:29:29;23.33;;;10.27;;
68944;SDS011;55984;48.790;8.990;2022-10-17T00:31:55;24.57;;;10.80;;
68944;SDS011;55984;48.790;8.990;2022-10-17T00:34:21;17.43;;;9.70;;
68944;SDS011;55984;48.790;8.990;2022-10-17T00:36:47;20.27;;;10.67;;
68944;SDS011;55984;48.790;8.990;2022-10-17T00:39:13;23.40;;;11.40;;
68944;SDS011;55984;48.790;8.990;2022-10-17T00:41:38;18.30;;;10.20;;
68944;SDS011;55984;48.790;8.990;2022-10-17T00:44:06;24.37;;;12.27;;
68944;SDS011;55984;48.790;8.990;2022-10-17T00:46:51;23.07;;;11.80;;
68944;SDS011;55984;48.790;8.990;2022-10-17T00:49:17;23.40;;;12.17;;
68944;SDS011;55984;48.790;8.990;2022-10-17T00:51:48;21.60;;;12.07;;
68944;SDS011;55984;48.790;8.990;2022-10-17T00:54:18;25.53;;;10.77;;
68944;SDS011;55984;48.790;8.990;2022-10-17T00:56:48;21.60;;;10.53;;
68944;SDS011;55984;48.790;8.990;2022-10-17T00:59:14;22.13;;;9.53;;
68944;SDS011;55984;48.790;8.990;2022-10-17T01:01:41;18.87;;;9.97;;
68944;SDS011;55984;48.790;8.990;2022-10-17T01:04:12;22.23;;;10.07;;
68944;SDS011;55984;48.790;8.990;2022-10-17T01:06:38;21.03;;;10.13;;
68944;SDS011;55984;48.790;8.990;2022-10-17T01:09:03;18.07;;;9.57;;
68944;SDS011;55984;48.790;8.990;2022-10-17T01:14:30;21.10;;;9.60;;
68944;SDS011;55984;48.790;8.990;2022-10-17T01:19:58;26.07;;;11.70;;
68944;SDS011;55984;48.790;8.990;2022-10-17T01:22:35;28.93;;;11.93;;
68944;SDS011;55984;48.790;8.990;2022-10-17T01:31:03;26.10;;;11.00;;
68944;SDS011;55984;48.790;8.990;2022-10-17T01:36:27;25.87;;;10.67;;
68944;SDS011;55984;48.790;8.990;2022-10-17T01:39:03;23.90;;;10.33;;
68944;SDS011;55984;48.790;8.990;2022-10-17T01:47:03;19.93;;;10.30;;
68944;SDS011;55984;48.790;8.990;2022-10-17T01:49:33;22.50;;;10.17;;
68944;SDS011;55984;48.790;8.990;2022-10-17T01:52:07;22.13;;;11.13;;
68944;SDS011;55984;48.790;8.990;2022-10-17T01:54:42;21.67;;;10.67;;
68944;SDS011;55984;48.790;8.990;2022-10-17T01:57:18;23.87;;;11.20;;
68944;SDS011;55984;48.790;8.990;2022-10-17T01:59:49;34.13;;;10.20;;
68944;SDS011;55984;48.790;8.990;2022-10-17T02:02:17;21.37;;;10.43;;
68944;SDS011;55984;48.790;8.990;2022-10-17T02:04:45;28.47;;;10.80;;
68944;SDS011;55984;48.790;8.990;2022-10-17T02:07:15;26.00;;;10.73;;
68944;SDS011;55984;48.790;8.990;2022-10-17T02:09:41;20.63;;;10.43;;
68944;SDS011;55984;48.790;8.990;2022-10-17T02:23:09;24.17;;;10.77;;
68944;SDS011;55984;48.790;8.990;2022-10-17T02:25:44;24.03;;;11.40;;
68944;SDS011;55984;48.790;8.990;2022-10-17T02:28:19;32.20;;;12.27;;
68944;SDS011;55984;48.790;8.990;2022-10-17T02:30:55;27.30;;;11.60;;
68944;SDS011;55984;48.790;8.990;2022-10-17T02:33:27;19.73;;;10.60;;
68944;SDS011;55984;48.790;8.990;2022-10-17T02:35:58;28.93;;;10.30;;
68944;SDS011;55984;48.790;8.990;2022-10-17T02:38:36;25.10;;;10.70;;
68944;SDS011;55984;48.790;8.990;2022-10-17T02:41:04;23.53;;;10.60;;
68944;SDS011;55984;48.790;8.990;2022-10-17T02:43:34;25.07;;;10.87;;
68944;SDS011;55984;48.790;8.990;2022-10-17T02:46:02;27.63;;;11.60;;
68944;SDS011;55984;48.790;8.990;2022-10-17T02:48:46;27.83;;;11.60;;
68944;SDS011;55984;48.790;8.990;2022-10-17T02:56:30;28.40;;;12.90;;
68944;SDS011;55984;48.790;8.990;2022-10-17T02:59:01;24.00;;;12.00;;
68944;SDS011;55984;48.790;8.990;2022-10-17T03:01:30;23.60;;;11.13;;
68944;SDS011;55984;48.790;8.990;2022-10-17T03:04:09;30.73;;;10.90;;
68944;SDS011;55984;48.790;8.990;2022-10-17T03:06:37;20.23;;;9.70;;
68944;SDS011;55984;48.790;8.990;2022-10-17T03:09:04;27.47;;;11.43;;
68944;SDS011;55984;48.790;8.990;2022-10-17T03:11:30;21.13;;;10.00;;
68944;SDS011;55984;48.790;8.990;2022-10-17T03:13:56;26.30;;;11.67;;
68944;SDS011;55984;48.790;8.990;2022-10-17T03:16:21;27.07;;;12.43;;
68944;SDS011;55984;48.790;8.990;2022-10-17T03:18:49;24.80;;;11.80;;
68944;SDS011;55984;48.790;8.990;2022-10-17T03:21:19;22.40;;;11.30;;
68944;SDS011;55984;48.790;8.990;2022-10-17T03:23:44;25.77;;;10.33;;
68944;SDS011;55984;48.790;8.990;2022-10-17T03:26:10;22.30;;;10.20;;
68944;SDS011;55984;48.790;8.990;2022-10-17T03:28:35;25.10;;;10.33;;
68944;SDS011;55984;48.790;8.990;2022-10-17T03:31:10;22.67;;;10.80;;
68944;SDS011;55984;48.790;8.990;2022-10-17T03:33:38;24.10;;;10.93;;
68944;SDS011;55984;48.790;8.990;2022-10-17T03:38:37;22.23;;;10.93;;
68944;SDS011;55984;48.790;8.990;2022-10-17T03:44:14;19.53;;;10.43;;
68944;SDS011;55984;48.790;8.990;2022-10-17T03:46:40;26.70;;;12.37;;
68944;SDS011;55984;48.790;8.990;2022-10-17T03:49:07;32.40;;;13.20;;
68944;SDS011;55984;48.790;8.990;2022-10-17T03:51:42;30.80;;;12.07;;
68944;SDS011;55984;48.790;8.990;2022-10-17T03:54:08;23.80;;;11.63;;
68944;SDS011;55984;48.790;8.990;2022-10-17T03:59:21;24.93;;;11.37;;
68944;SDS011;55984;48.790;8.990;2022-10-17T04:01:53;21.20;;;11.10;;
68944;SDS011;55984;48.790;8.990;2022-10-17T04:04:19;26.73;;;11.30;;
68944;SDS011;55984;48.790;8.990;2022-10-17T04:06:50;21.67;;;10.50;;
68944;SDS011;55984;48.790;8.990;2022-10-17T04:09:15;22.73;;;11.30;;
68944;SDS011;55984;48.790;8.990;2022-10-17T04:11:58;30.47;;;12.47;;
68944;SDS011;55984;48.790;8.990;2022-10-17T04:14:24;30.10;;;14.00;;
68944;SDS011;55984;48.790;8.990;2022-10-17T04:17:01;29.67;;;13.37;;
68944;SDS011;55984;48.790;8.990;2022-10-17T04:19:26;35.90;;;14.60;;
68944;SDS011;55984;48.790;8.990;2022-10-17T04:21:51;38.07;;;16.50;;
68944;SDS011;55984;48.790;8.990;2022-10-17T04:24:25;35.97;;;15.77;;
68944;SDS011;55984;48.790;8.990;2022-10-17T04:26:51;38.93;;;17.00;;
68944;SDS011;55984;48.790;8.990;2022-10-17T04:31:46;35.40;;;13.60;;
68944;SDS011;55984;48.790;8.990;2022-10-17T04:34:13;30.53;;;12.70;;
68944;SDS011;55984;48.790;8.990;2022-10-17T04:36:39;28.83;;;13.30;;
68944;SDS011;55984;48.790;8.990;2022-10-17T04:39:18;35.10;;;13.67;;
68944;SDS011;55984;48.790;8.990;2022-10-17T04:41:43;28.53;;;12.50;;
68944;SDS011;55984;48.790;8.990;2022-10-17T04:46:37;38.53;;;13.97;;
68944;SDS011;55984;48.790;8.990;2022-10-17T04:49:04;34.50;;;15.67;;
68944;SDS011;55984;48.790;8.990;2022-10-17T04:51:29;35.70;;;15.80;;
68944;SDS011;55984;48.790;8.990;2022-10-17T04:53:57;35.63;;;15.30;;
68944;SDS011;55984;48.790;8.990;2022-10-17T04:56:22;40.47;;;17.00;;
68944;SDS011;55984;48.790;8.990;2022-10-17T04:58:49;40.83;;;17.00;;
68944;SDS011;55984;48.790;8.990;2022-10-17T05:01:16;32.37;;;15.83;;
68944;SDS011;55984;48.790;8.990;2022-10-17T05:03:45;41.40;;;16.93;;
68944;SDS011;55984;48.790;8.990;2022-10-17T05:06:12;44.93;;;17.17;;
68944;SDS011;55984;48.790;8.990;2022-10-17T05:08:40;35.60;;;16.17;;
68944;SDS011;55984;48.790;8.990;2022-10-17T05:11:20;41.20;;;16.90;;
68944;SDS011;55984;48.790;8.990;2022-10-17T05:13:53;33.53;;;15.90;;
68944;SDS011;55984;48.790;8.990;2022-10-17T05:16:21;39.57;;;17.43;;
68944;SDS011;55984;48.790;8.990;2022-10-17T05:18:48;37.23;;;16.70;;
68944;SDS011;55984;48.790;8.990;2022-10-17T05:21:15;35.57;;;16.60;;
68944;SDS011;55984;48.790;8.990;2022-10-17T05:23:41;39.23;;;16.83;;
68944;SDS011;55984;48.790;8.990;2022-10-17T05:26:07;32.10;;;16.17;;
68944;SDS011;55984;48.790;8.990;2022-10-17T05:28:33;31.47;;;15.33;;
68944;SDS011;55984;48.790;8.990;2022-10-17T05:31:03;30.97;;;13.70;;
68944;SDS011;55984;48.790;8.990;2022-10-17T05:33:33;43.83;;;14.47;;
68944;SDS011;55984;48.790;8.990;2022-10-17T05:35:59;30.40;;;14.77;;
68944;SDS011;55984;48.790;8.990;2022-10-17T05:38:25;32.13;;;13.90;;
68944;SDS011;55984;48.790;8.990;2022-10-17T05:40:51;28.90;;;14.43;;
68944;SDS011;55984;48.790;8.990;2022-10-17T05:43:21;31.93;;;13.70;;
68944;SDS011;55984;48.790;8.990;2022-10-17T05:45:53;28.33;;;13.67;;
68944;SDS011;55984;48.790;8.990;2022-10-17T05:48:22;29.53;;;14.63;;
68944;SDS011;55984;48.790;8.990;2022-10-17T05:50:48;32.97;;;13.03;;
68944;SDS011;55984;48.790;8.990;2022-10-17T05:53:14;37.87;;;14.90;;
68944;SDS011;55984;48.790;8.990;2022-10-17T05:55:40;31.90;;;15.30;;
68944;SDS011;55984;48.790;8.990;2022-10-17T05:58:06;35.47;;;15.43;;
68944;SDS011;55984;48.790;8.990;2022-10-17T06:00:31;30.40;;;15.40;;
68944;SDS011;55984;48.790;8.990;2022-10-17T06:02:58;30.90;;;13.97;;
68944;SDS011;55984;48.790;8.990;2022-10-17T06:05:23;32.23;;;14.97;;
68944;SDS011;55984;48.790;8.990;2022-10-17T06:07:50;30.10;;;13.93;;
68944;SDS011;55984;48.790;8.990;2022-10-17T06:10:16;31.50;;;13.37;;
68944;SDS011;55984;48.790;8.990;2022-10-17T06:12:42;126.87;;;20.70;;
68944;SDS011;55984;48.790;8.990;2022-10-17T06:15:08;65.00;;;19.13;;
68944;SDS011;55984;48.790;8.990;2022-10-17T06:17:34;49.80;;;19.73;;
68944;SDS011;55984;48.790;8.990;2022-10-17T06:20:00;34.50;;;17.90;;
68944;SDS011;55984;48.790;8.990;2022-10-17T06:22:25;28.60;;;14.40;;
68944;SDS011;55984;48.790;8.990;2022-10-17T06:24:51;44.13;;;18.40;;
68944;SDS011;55984;48.790;8.990;2022-10-17T06:27:17;43.23;;;17.20;;
68944;SDS011;55984;48.790;8.990;2022-10-17T06:29:47;45.90;;;18.97;;
68944;SDS011;55984;48.790;8.990;2022-10-17T06:32:14;53.23;;;18.60;;
68944;SDS011;55984;48.790;8.990;2022-10-17T06:34:40;55.03;;;19.57;;
68944;SDS011;55984;48.790;8.990;2022-10-17T06:37:05;41.37;;;18.90;;
68944;SDS011;55984;48.790;8.990;2022-10-17T06:39:31;40.80;;;17.30;;
68944;SDS011;55984;48.790;8.990;2022-10-17T06:41:59;35.07;;;17.30;;
68944;SDS011;55984;48.790;8.990;2022-10-17T06:44:25;37.07;;;17.60;;
68944;SDS011;55984;48.790;8.990;2022-10-17T06:46:54;94.57;;;21.90;;
68944;SDS011;55984;48.790;8.990;2022-10-17T06:49:20;48.53;;;19.83;;
68944;SDS011;55984;48.790;8.990;2022-10-17T06:51:46;45.03;;;20.30;;
68944;SDS011;55984;48.790;8.990;2022-10-17T06:54:11;45.40;;;20.00;;
68944;SDS011;55984;48.790;8.990;2022-10-17T06:56:37;54.00;;;21.00;;
68944;SDS011;55984;48.790;8.990;2022-10-17T06:59:02;73.27;;;25.23;;
68944;SDS011;55984;48.790;8.990;2022-10-17T07:01:27;43.23;;;20.20;;
68944;SDS011;55984;48.790;8.990;2022-10-17T07:03:55;45.30;;;20.87;;
68944;SDS011;55984;48.790;8.990;2022-10-17T07:06:20;43.87;;;20.37;;
68944;SDS011;55984;48.790;8.990;2022-10-17T07:08:50;43.40;;;20.50;;
68944;SDS011;55984;48.790;8.990;2022-10-17T07:11:17;38.20;;;18.00;;
68944;SDS011;55984;48.790;8.990;2022-10-17T07:13:46;42.23;;;20.20;;
68944;SDS011;55984;48.790;8.990;2022-10-17T07:16:12;32.33;;;17.10;;
68944;SDS011;55984;48.790;8.990;2022-10-17T07:18:43;65.23;;;18.77;;
68944;SDS011;55984;48.790;8.990;2022-10-17T07:21:08;37.30;;;18.67;;
68944;SDS011;55984;48.790;8.990;2022-10-17T07:23:34;31.83;;;16.67;;
68944;SDS011;55984;48.790;8.990;2022-10-17T07:26:04;40.00;;;16.57;;
68944;SDS011;55984;48.790;8.990;2022-10-17T07:28:32;44.33;;;17.30;;
68944;SDS011;55984;48.790;8.990;2022-10-17T07:31:05;28.77;;;14.90;;
68944;SDS011;55984;48.790;8.990;2022-10-17T07:33:31;24.57;;;12.50;;
68944;SDS011;55984;48.790;8.990;2022-10-17T07:35:58;17.37;;;9.83;;
68944;SDS011;55984;48.790;8.990;2022-10-17T07:38:24;15.80;;;8.83;;
68944;SDS011;55984;48.790;8.990;2022-10-17T07:40:53;17.50;;;8.97;;
68944;SDS011;55984;48.790;8.990;2022-10-17T07:43:20;18.30;;;8.83;;
68944;SDS011;55984;48.790;8.990;2022-10-17T07:45:45;12.40;;;6.80;;
68944;SDS011;55984;48.790;8.990;2022-10-17T07:48:11;9.20;;;5.80;;
68944;SDS011;55984;48.790;8.990;2022-10-17T07:50:36;8.10;;;4.87;;
68944;SDS011;55984;48.790;8.990;2022-10-17T07:53:03;6.53;;;4.27;;
68944;SDS011;55984;48.790;8.990;2022-10-17T07:55:29;9.27;;;4.37;;
68944;SDS011;55984;48.790;8.990;2022-10-17T07:57:55;10.80;;;3.50;;
68944;SDS011;55984;48.790;8.990;2022-10-17T08:00:21;7.27;;;3.70;;
68944;SDS011;55984;48.790;8.990;2022-10-17T08:02:47;8.80;;;4.20;;
68944;SDS011;55984;48.790;8.990;2022-10-17T08:05:12;8.43;;;3.63;;
68944;SDS011;55984;48.790;8.990;2022-10-17T08:07:38;13.93;;;3.60;;
68944;SDS011;55984;48.790;8.990;2022-10-17T08:10:05;5.90;;;3.40;;
68944;SDS011;55984;48.790;8.990;2022-10-17T08:12:31;5.77;;;3.53;;
68944;SDS011;55984;48.790;8.990;2022-10-17T08:14:59;18.07;;;3.97;;
68944;SDS011;55984;48.790;8.990;2022-10-17T08:17:25;7.63;;;3.30;;
68944;SDS011;55984;48.790;8.990;2022-10-17T08:19:50;8.20;;;3.40;;
68944;SDS011;55984;48.790;8.990;2022-10-17T08:22:16;8.57;;;3.43;;
68944;SDS011;55984;48.790;8.990;2022-10-17T08:24:41;7.20;;;3.43;;
68944;SDS011;55984;48.790;8.990;2022-10-17T08:27:08;5.00;;;3.53;;
68944;SDS011;55984;48.790;8.990;2022-10-17T08:29:40;4.03;;;2.90;;
68944;SDS011;55984;48.790;8.990;2022-10-17T08:32:05;7.50;;;3.00;;
68944;SDS011;55984;48.790;8.990;2022-10-17T08:34:33;7.63;;;3.23;;
68944;SDS011;55984;48.790;8.990;2022-10-17T08:36:58;4.80;;;3.37;;
68944;SDS011;55984;48.790;8.990;2022-10-17T08:39:27;5.57;;;3.23;;
68944;SDS011;55984;48.790;8.990;2022-10-17T08:47:13;5.20;;;2.90;;
68944;SDS011;55984;48.790;8.990;2022-10-17T08:49:48;4.80;;;3.00;;
68944;SDS011;55984;48.790;8.990;2022-10-17T08:52:31;9.23;;;3.43;;
68944;SDS011;55984;48.790;8.990;2022-10-17T08:55:02;6.10;;;2.97;;
68944;SDS011;55984;48.790;8.990;2022-10-17T08:57:29;5.67;;;3.00;;
68944;SDS011;55984;48.790;8.990;2022-10-17T08:59:58;6.03;;;3.10;;
68944;SDS011;55984;48.790;8.990;2022-10-17T09:02:33;6.70;;;3.00;;
68944;SDS011;55984;48.790;8.990;2022-10-17T09:05:21;3.97;;;3.00;;
68944;SDS011;55984;48.790;8.990;2022-10-17T09:07:54;7.50;;;2.97;;
68944;SDS011;55984;48.790;8.990;2022-10-17T09:10:26;8.30;;;3.57;;
68944;SDS011;55984;48.790;8.990;2022-10-17T09:13:39;9.23;;;2.80;;
68944;SDS011;55984;48.790;8.990;2022-10-17T09:16:21;4.70;;;3.33;;
68944;SDS011;55984;48.790;8.990;2022-10-17T09:19:00;4.73;;;3.23;;
68944;SDS011;55984;48.790;8.990;2022-10-17T09:27:19;13.33;;;3.60;;
68944;SDS011;55984;48.790;8.990;2022-10-17T09:30:39;3.60;;;2.70;;
68944;SDS011;55984;48.790;8.990;2022-10-17T09:33:16;4.90;;;3.10;;
68944;SDS011;55984;48.790;8.990;2022-10-17T09:35:45;9.53;;;3.10;;
68944;SDS011;55984;48.790;8.990;2022-10-17T09:38:16;5.93;;;3.07;;
68944;SDS011;55984;48.790;8.990;2022-10-17T09:40:45;7.50;;;3.10;;
68944;SDS011;55984;48.790;8.990;2022-10-17T09:43:15;5.90;;;3.00;;
68944;SDS011;55984;48.790;8.990;2022-10-17T09:45:45;7.73;;;2.90;;
68944;SDS011;55984;48.790;8.990;2022-10-17T09:48:27;4.87;;;3.10;;
68944;SDS011;55984;48.790;8.990;2022-10-17T09:51:00;5.87;;;3.10;;
68944;SDS011;55984;48.790;8.990;2022-10-17T09:56:02;4.13;;;2.73;;
68944;SDS011;55984;48.790;8.990;2022-10-17T09:58:40;4.77;;;3.10;;
68944;SDS011;55984;48.790;8.990;2022-10-17T10:01:21;5.27;;;2.80;;
68944;SDS011;55984;48.790;8.990;2022-10-17T10:06:38;7.70;;;3.10;;
68944;SDS011;55984;48.790;8.990;2022-10-17T10:09:18;9.33;;;3.13;;
68944;SDS011;55984;48.790;8.990;2022-10-17T10:11:48;6.30;;;3.00;;
68944;SDS011;55984;48.790;8.990;2022-10-17T10:14:32;7.40;;;2.87;;
68944;SDS011;55984;48.790;8.990;2022-10-17T10:17:03;8.53;;;3.10;;
68944;SDS011;55984;48.790;8.990;2022-10-17T10:19:34;8.27;;;2.80;;
68944;SDS011;55984;48.790;8.990;2022-10-17T10:22:03;7.13;;;2.90;;
68944;SDS011;55984;48.790;8.990;2022-10-17T10:24:32;5.93;;;3.10;;
68944;SDS011;55984;48.790;8.990;2022-10-17T10:26:59;4.33;;;2.90;;
68944;SDS011;55984;48.790;8.990;2022-10-17T10:34:53;5.60;;;2.80;;
68944;SDS011;55984;48.790;8.990;2022-10-17T10:40:06;3.73;;;2.57;;
68944;SDS011;55984;48.790;8.990;2022-10-17T10:42:44;7.20;;;2.43;;
68944;SDS011;55984;48.790;8.990;2022-10-17T10:48:15;4.53;;;2.90;;
68944;SDS011;55984;48.790;8.990;2022-10-17T10:53:24;8.10;;;3.10;;
68944;SDS011;55984;48.790;8.990;2022-10-17T10:56:01;6.27;;;2.73;;
68944;SDS011;55984;48.790;8.990;2022-10-17T11:04:10;5.47;;;3.10;;
68944;SDS011;55984;48.790;8.990;2022-10-17T11:10:37;4.40;;;3.07;;
68944;SDS011;55984;48.790;8.990;2022-10-17T11:12:49;7.33;;;2.83;;
68944;SDS011;55984;48.790;8.990;2022-10-17T11:18:09;4.80;;;2.80;;
68944;SDS011;55984;48.790;8.990;2022-10-17T11:23:37;10.40;;;2.80;;
68944;SDS011;55984;48.790;8.990;2022-10-17T11:26:11;5.03;;;2.73;;
68944;SDS011;55984;48.790;8.990;2022-10-17T11:28:41;8.13;;;2.83;;
68944;SDS011;55984;48.790;8.990;2022-10-17T11:31:08;10.73;;;3.20;;
68944;SDS011;55984;48.790;8.990;2022-10-17T11:33:51;4.10;;;2.83;;
68944;SDS011;55984;48.790;8.990;2022-10-17T11:36:24;4.80;;;2.87;;
68944;SDS011;55984;48.790;8.990;2022-10-17T11:42:16;9.70;;;3.00;;
68944;SDS011;55984;48.790;8.990;2022-10-17T11:44:45;9.10;;;2.50;;
68944;SDS011;55984;48.790;8.990;2022-10-17T11:50:29;10.53;;;3.10;;
68944;SDS011;55984;48.790;8.990;2022-10-17T11:52:59;6.87;;;2.83;;
68944;SDS011;55984;48.790;8.990;2022-10-17T11:55:30;10.87;;;2.80;;
68944;SDS011;55984;48.790;8.990;2022-10-17T12:03:30;5.47;;;2.70;;
68944;SDS011;55984;48.790;8.990;2022-10-17T12:09:09;7.60;;;3.07;;
68944;SDS011;55984;48.790;8.990;2022-10-17T12:11:45;10.60;;;3.03;;
68944;SDS011;55984;48.790;8.990;2022-10-17T12:16:57;6.40;;;2.90;;
68944;SDS011;55984;48.790;8.990;2022-10-17T12:19:23;8.27;;;2.70;;
68944;SDS011;55984;48.790;8.990;2022-10-17T12:21:56;8.30;;;2.80;;
68944;SDS011;55984;48.790;8.990;2022-10-17T12:24:36;14.37;;;2.70;;
68944;SDS011;55984;48.790;8.990;2022-10-17T12:30:33;4.33;;;2.63;;
68944;SDS011;55984;48.790;8.990;2022-10-17T12:32:52;5.20;;;2.70;;
68944;SDS011;55984;48.790;8.990;2022-10-17T12:35:23;5.77;;;2.70;;
68944;SDS011;55984;48.790;8.990;2022-10-17T12:42:59;6.47;;;2.67;;
68944;SDS011;55984;48.790;8.990;2022-10-17T12:56:20;11.07;;;3.13;;
68944;SDS011;55984;48.790;8.990;2022-10-17T12:58:54;8.57;;;3.40;;
68944;SDS011;55984;48.790;8.990;2022-10-17T13:01:32;5.07;;;3.00;;
68944;SDS011;55984;48.790;8.990;2022-10-17T13:04:00;7.77;;;3.17;;
68944;SDS011;55984;48.790;8.990;2022-10-17T13:06:30;5.27;;;3.20;;
68944;SDS011;55984;48.790;8.990;2022-10-17T13:09:04;6.43;;;2.97;;
68944;SDS011;55984;48.790;8.990;2022-10-17T13:11:44;5.70;;;3.00;;
68944;SDS011;55984;48.790;8.990;2022-10-17T13:14:12;7.50;;;2.77;;
68944;SDS011;55984;48.790;8.990;2022-10-17T13:16:42;3.40;;;2.70;;
68944;SDS011;55984;48.790;8.990;2022-10-17T13:19:19;6.53;;;2.60;;
68944;SDS011;55984;48.790;8.990;2022-10-17T13:21:53;5.70;;;2.90;;
68944;SDS011;55984;48.790;8.990;2022-10-17T13:24:32;6.13;;;2.73;;
68944;SDS011;55984;48.790;8.990;2022-10-17T13:26:59;9.60;;;3.30;;
68944;SDS011;55984;48.790;8.990;2022-10-17T13:29:25;4.53;;;2.67;;
68944;SDS011;55984;48.790;8.990;2022-10-17T13:31:55;6.50;;;2.93;;
68944;SDS011;55984;48.790;8.990;2022-10-17T13:34:26;8.73;;;2.80;;
68944;SDS011;55984;48.790;8.990;2022-10-17T13:36:54;4.90;;;2.70;;
68944;SDS011;55984;48.790;8.990;2022-10-17T13:39:24;4.23;;;2.50;;
68944;SDS011;55984;48.790;8.990;2022-10-17T13:41:54;10.13;;;2.80;;
68944;SDS011;55984;48.790;8.990;2022-10-17T13:44:22;13.43;;;3.10;;
68944;SDS011;55984;48.790;8.990;2022-10-17T13:46:50;3.70;;;2.37;;
68944;SDS011;55984;48.790;8.990;2022-10-17T13:49:21;5.63;;;3.17;;
68944;SDS011;55984;48.790;8.990;2022-10-17T13:51:50;6.80;;;2.90;;
68944;SDS011;55984;48.790;8.990;2022-10-17T13:56:43;6.67;;;3.07;;
68944;SDS011;55984;48.790;8.990;2022-10-17T13:59:20;5.80;;;2.90;;
68944;SDS011;55984;48.790;8.990;2022-10-17T14:01:48;5.80;;;2.90;;
68944;SDS011;55984;48.790;8.990;2022-10-17T14:04:16;9.07;;;2.77;;
68944;SDS011;55984;48.790;8.990;2022-10-17T14:06:42;8.90;;;2.73;;
68944;SDS011;55984;48.790;8.990;2022-10-17T14:09:22;5.33;;;2.90;;
68944;SDS011;55984;48.790;8.990;2022-10-17T14:12:08;6.37;;;2.90;;
68944;SDS011;55984;48.790;8.990;2022-10-17T14:14:37;4.37;;;2.40;;
68944;SDS011;55984;48.790;8.990;2022-10-17T14:17:39;4.00;;;2.97;;
68944;SDS011;55984;48.790;8.990;2022-10-17T14:19:59;8.20;;;2.90;;
68944;SDS011;55984;48.790;8.990;2022-10-17T14:22:32;10.13;;;2.80;;
68944;SDS011;55984;48.790;8.990;2022-10-17T14:25:00;6.30;;;2.63;;
68944;SDS011;55984;48.790;8.990;2022-10-17T14:27:29;10.40;;;3.27;;
68944;SDS011;55984;48.790;8.990;2022-10-17T14:30:52;8.60;;;2.50;;
68944;SDS011;55984;48.790;8.990;2022-10-17T14:32:58;12.90;;;3.43;;
68944;SDS011;55984;48.790;8.990;2022-10-17T14:35:27;9.13;;;2.67;;
68944;SDS011;55984;48.790;8.990;2022-10-17T14:37:58;5.10;;;2.90;;
68944;SDS011;55984;48.790;8.990;2022-10-17T14:40:26;7.40;;;3.00;;
68944;SDS011;55984;48.790;8.990;2022-10-17T14:42:54;6.23;;;2.80;;
68944;SDS011;55984;48.790;8.990;2022-10-17T14:48:07;4.90;;;2.70;;
68944;SDS011;55984;48.790;8.990;2022-10-17T14:50:36;5.07;;;2.67;;
68944;SDS011;55984;48.790;8.990;2022-10-17T14:53:11;7.10;;;3.00;;
68944;SDS011;55984;48.790;8.990;2022-10-17T14:55:56;4.90;;;2.80;;
68944;SDS011;55984;48.790;8.990;2022-10-17T14:58:26;3.80;;;2.70;;
68944;SDS011;55984;48.790;8.990;2022-10-17T15:00:53;5.50;;;2.97;;
68944;SDS011;55984;48.790;8.990;2022-10-17T15:03:20;7.60;;;2.87;;
68944;SDS011;55984;48.790;8.990;2022-10-17T15:05:45;9.70;;;3.33;;
68944;SDS011;55984;48.790;8.990;2022-10-17T15:08:14;7.30;;;2.70;;
68944;SDS011;55984;48.790;8.990;2022-10-17T15:10:40;5.67;;;2.90;;
68944;SDS011;55984;48.790;8.990;2022-10-17T15:13:06;15.53;;;3.00;;
68944;SDS011;55984;48.790;8.990;2022-10-17T15:15:32;7.07;;;3.30;;
68944;SDS011;55984;48.790;8.990;2022-10-17T15:18:00;8.03;;;3.10;;
68944;SDS011;55984;48.790;8.990;2022-10-17T15:20:27;5.47;;;3.00;;
68944;SDS011;55984;48.790;8.990;2022-10-17T15:22:54;8.97;;;3.27;;
68944;SDS011;55984;48.790;8.990;2022-10-17T15:25:28;11.90;;;3.20;;
68944;SDS011;55984;48.790;8.990;2022-10-17T15:27:55;13.57;;;3.07;;
68944;SDS011;55984;48.790;8.990;2022-10-17T15:30:30;11.83;;;3.40;;
68944;SDS011;55984;48.790;8.990;2022-10-17T15:32:58;12.70;;;4.00;;
68944;SDS011;55984;48.790;8.990;2022-10-17T15:35:24;9.20;;;2.80;;
68944;SDS011;55984;48.790;8.990;2022-10-17T15:37:53;13.90;;;3.30;;
68944;SDS011;55984;48.790;8.990;2022-10-17T15:40:19;14.43;;;3.63;;
68944;SDS011;55984;48.790;8.990;2022-10-17T15:42:47;7.53;;;3.17;;
68944;SDS011;55984;48.790;8.990;2022-10-17T15:45:14;6.13;;;2.80;;
68944;SDS011;55984;48.790;8.990;2022-10-17T15:47:41;6.30;;;3.00;;
68944;SDS011;55984;48.790;8.990;2022-10-17T15:50:14;12.70;;;3.30;;
68944;SDS011;55984;48.790;8.990;2022-10-17T15:52:41;12.70;;;3.10;;
68944;SDS011;55984;48.790;8.990;2022-10-17T15:55:08;12.00;;;3.30;;
68944;SDS011;55984;48.790;8.990;2022-10-17T15:57:37;9.57;;;3.80;;
68944;SDS011;55984;48.790;8.990;2022-10-17T16:00:10;6.40;;;3.00;;
68944;SDS011;55984;48.790;8.990;2022-10-17T16:02:43;18.33;;;3.70;;
68944;SDS011;55984;48.790;8.990;2022-10-17T16:05:12;7.20;;;3.00;;
68944;SDS011;55984;48.790;8.990;2022-10-17T16:07:49;10.87;;;3.20;;
68944;SDS011;55984;48.790;8.990;2022-10-17T16:10:28;15.90;;;3.70;;
68944;SDS011;55984;48.790;8.990;2022-10-17T16:12:53;24.87;;;4.37;;
68944;SDS011;55984;48.790;8.990;2022-10-17T16:15:22;13.83;;;3.40;;
68944;SDS011;55984;48.790;8.990;2022-10-17T16:17:53;7.03;;;3.50;;
68944;SDS011;55984;48.790;8.990;2022-10-17T16:20:21;14.50;;;4.20;;
68944;SDS011;55984;48.790;8.990;2022-10-17T16:22:49;11.10;;;3.93;;
68944;SDS011;55984;48.790;8.990;2022-10-17T16:25:20;10.00;;;3.97;;
68944;SDS011;55984;48.790;8.990;2022-10-17T16:27:51;14.20;;;4.77;;
68944;SDS011;55984;48.790;8.990;2022-10-17T16:30:27;11.33;;;3.60;;
68944;SDS011;55984;48.790;8.990;2022-10-17T16:32:57;13.47;;;3.97;;
68944;SDS011;55984;48.790;8.990;2022-10-17T16:35:26;13.80;;;4.00;;
68944;SDS011;55984;48.790;8.990;2022-10-17T16:37:53;12.20;;;4.40;;
68944;SDS011;55984;48.790;8.990;2022-10-17T16:40:20;17.27;;;4.10;;
68944;SDS011;55984;48.790;8.990;2022-10-17T16:42:46;21.97;;;4.10;;
68944;SDS011;55984;48.790;8.990;2022-10-17T16:45:19;11.37;;;4.20;;
68944;SDS011;55984;48.790;8.990;2022-10-17T16:47:47;14.00;;;4.40;;
68944;SDS011;55984;48.790;8.990;2022-10-17T16:50:13;31.80;;;4.77;;
68944;SDS011;55984;48.790;8.990;2022-10-17T16:52:41;13.00;;;4.10;;
68944;SDS011;55984;48.790;8.990;2022-10-17T16:55:07;13.43;;;4.27;;
68944;SDS011;55984;48.790;8.990;2022-10-17T16:57:34;17.30;;;6.43;;
68944;SDS011;55984;48.790;8.990;2022-10-17T17:00:00;16.97;;;5.50;;
68944;SDS011;55984;48.790;8.990;2022-10-17T17:02:48;9.93;;;4.17;;
68944;SDS011;55984;48.790;8.990;2022-10-17T17:05:15;9.57;;;4.20;;
68944;SDS011;55984;48.790;8.990;2022-10-17T17:07:44;16.50;;;5.03;;
68944;SDS011;55984;48.790;8.990;2022-10-17T17:10:12;16.10;;;4.83;;